createdAt,value
2022-11-20T00:01:22.504Z,4.97
2022-11-20T00:03:49.323Z,5.45
2022-11-20T00:08:43.924Z,4.45
2022-11-20T00:13:47.715Z,4.93
2022-11-20T00:16:16.738Z,5.10
2022-11-20T00:18:43.575Z,5.05
2022-11-20T00:23:42.209Z,5.13
2022-11-20T00:26:11.535Z,5.05
2022-11-20T00:28:38.418Z,5.45
2022-11-20T00:33:34.057Z,4.40
2022-11-20T00:36:06.112Z,4.60
2022-11-20T00:38:33.760Z,4.35
2022-11-20T00:41:06.022Z,4.63
2022-11-20T00:43:32.841Z,4.22
2022-11-20T00:48:26.892Z,4.07
2022-11-20T00:50:54.089Z,4.60
2022-11-20T00:53:21.325Z,3.67
2022-11-20T00:55:55.785Z,3.88
2022-11-20T00:58:23.816Z,3.67
2022-11-20T01:00:51.010Z,4.00
2022-11-20T01:03:24.041Z,3.97
2022-11-20T01:05:53.500Z,4.00
2022-11-20T01:08:20.202Z,4.43
2022-11-20T01:13:32.139Z,5.43
2022-11-20T01:16:06.341Z,4.68
2022-11-20T01:18:33.632Z,5.00
2022-11-20T01:21:28.054Z,5.28
2022-11-20T01:23:55.039Z,5.25
2022-11-20T01:26:24.675Z,5.18
2022-11-20T01:28:52.080Z,4.75
2022-11-20T01:31:24.227Z,5.28
2022-11-20T01:33:53.327Z,4.68
2022-11-20T01:36:22.195Z,5.40
2022-11-20T01:38:51.724Z,5.25
2022-11-20T01:41:37.235Z,4.45
2022-11-20T01:44:05.165Z,4.28
2022-11-20T01:46:34.781Z,3.97
2022-11-20T01:49:16.349Z,4.47
2022-11-20T01:51:49.903Z,5.55
2022-11-20T01:54:20.573Z,5.28
2022-11-20T01:56:51.108Z,5.55
2022-11-20T01:59:19.865Z,4.35
2022-11-20T02:01:47.202Z,5.28
2022-11-20T02:04:15.316Z,5.22
2022-11-20T02:06:59.802Z,4.05
2022-11-20T02:09:26.781Z,5.40
2022-11-20T02:11:54.327Z,4.72
2022-11-20T02:14:23.195Z,5.68
2022-11-20T02:16:50.456Z,4.85
2022-11-20T02:19:32.618Z,4.88
2022-11-20T02:22:27.200Z,5.05
2022-11-20T02:24:54.020Z,4.65
2022-11-20T02:29:56.014Z,5.72
2022-11-20T02:32:26.425Z,5.82
2022-11-20T02:34:53.568Z,5.30
2022-11-20T02:37:20.907Z,5.22
2022-11-20T02:39:50.780Z,5.65
2022-11-20T02:42:17.940Z,5.47
2022-11-20T02:44:44.610Z,4.95
2022-11-20T02:47:11.432Z,5.30
2022-11-20T02:49:38.150Z,4.80
2022-11-20T02:54:31.812Z,5.78
2022-11-20T02:56:58.556Z,4.75
2022-11-20T02:59:25.173Z,5.53
2022-11-20T03:01:51.883Z,4.93
2022-11-20T03:06:45.184Z,5.00
2022-11-20T03:09:12.135Z,6.50
2022-11-20T03:11:38.948Z,4.80
2022-11-20T03:16:33.453Z,5.55
2022-11-20T03:19:00.590Z,5.82
2022-11-20T03:21:27.496Z,4.85
2022-11-20T03:23:55.014Z,5.43
2022-11-20T03:26:25.110Z,5.00
2022-11-20T03:28:56.919Z,4.70
2022-11-20T03:31:26.816Z,4.25
2022-11-20T03:33:53.852Z,5.93
2022-11-20T03:36:21.825Z,4.93
2022-11-20T03:38:49.096Z,3.95
2022-11-20T03:41:19.303Z,4.50
2022-11-20T03:43:55.007Z,5.03
2022-11-20T03:46:22.228Z,5.43
2022-11-20T03:48:51.854Z,4.60
2022-11-20T03:51:30.759Z,4.93
2022-11-20T03:53:59.727Z,4.60
2022-11-20T03:56:29.421Z,5.30
2022-11-20T03:58:56.979Z,4.47
2022-11-20T04:01:30.075Z,4.50
2022-11-20T04:03:58.152Z,5.10
2022-11-20T04:06:36.426Z,6.07
2022-11-20T04:09:03.986Z,5.00
2022-11-20T04:11:33.155Z,4.78
2022-11-20T04:14:01.979Z,5.35
2022-11-20T04:16:32.165Z,4.78
2022-11-20T04:19:01.093Z,5.20
2022-11-20T04:21:28.731Z,5.03
2022-11-20T04:23:56.438Z,5.13
2022-11-20T04:26:25.258Z,4.90
2022-11-20T04:28:52.713Z,5.28
2022-11-20T04:31:22.277Z,5.03
2022-11-20T04:33:48.961Z,4.90
2022-11-20T04:36:24.512Z,5.07
2022-11-20T04:39:02.896Z,5.45
2022-11-20T04:41:33.227Z,5.05
2022-11-20T04:44:03.905Z,5.00
2022-11-20T04:46:33.376Z,5.38
2022-11-20T04:49:00.347Z,5.38
2022-11-20T04:51:27.715Z,5.53
2022-11-20T04:53:54.751Z,6.00
2022-11-20T04:56:21.406Z,4.38
2022-11-20T04:58:48.113Z,5.65
2022-11-20T05:03:46.683Z,4.03
2022-11-20T05:06:16.160Z,4.75
2022-11-20T05:08:43.067Z,4.68
2022-11-20T05:11:21.975Z,4.55
2022-11-20T05:13:50.411Z,5.68
2022-11-20T05:16:24.974Z,4.63
2022-11-20T05:18:53.618Z,4.95
2022-11-20T05:21:20.408Z,5.68
2022-11-20T05:26:17.387Z,5.32
2022-11-20T05:28:44.558Z,5.65
2022-11-20T05:31:13.643Z,4.10
2022-11-20T05:33:45.190Z,5.05
2022-11-20T05:36:14.660Z,4.65
2022-11-20T05:38:42.004Z,4.70
2022-11-20T05:41:17.283Z,4.63
2022-11-20T05:43:46.057Z,4.57
2022-11-20T05:46:15.584Z,4.40
2022-11-20T05:48:43.972Z,4.80
2022-11-20T05:51:12.619Z,4.82
2022-11-20T05:53:42.532Z,6.10
2022-11-20T05:56:16.233Z,6.65
2022-11-20T05:58:43.175Z,5.40
2022-11-20T06:01:13.743Z,5.50
2022-11-20T06:03:41.576Z,5.53
2022-11-20T06:06:08.295Z,6.30
2022-11-20T06:11:09.631Z,5.93
2022-11-20T06:13:41.619Z,5.03
2022-11-20T06:16:09.839Z,4.88
2022-11-20T06:18:36.492Z,4.93
2022-11-20T06:21:15.275Z,5.53
2022-11-20T06:23:42.748Z,4.65
2022-11-20T06:26:11.840Z,3.97
2022-11-20T06:28:38.833Z,4.25
2022-11-20T06:31:06.605Z,4.25
2022-11-20T06:33:33.711Z,4.60
2022-11-20T06:36:05.707Z,3.97
2022-11-20T06:38:34.184Z,3.90
2022-11-20T06:43:29.380Z,4.40
2022-11-20T06:45:57.508Z,4.38
2022-11-20T06:48:25.312Z,3.95
2022-11-20T06:50:52.256Z,4.72
2022-11-20T06:53:19.100Z,4.13
2022-11-20T06:58:15.012Z,4.32
2022-11-20T07:00:42.168Z,4.40
2022-11-20T07:03:11.404Z,4.32
2022-11-20T07:05:39.292Z,3.85
2022-11-20T07:08:06.324Z,4.50
2022-11-20T07:10:33.573Z,4.50
2022-11-20T07:13:00.585Z,4.53
2022-11-20T07:15:27.393Z,4.45
2022-11-20T07:17:54.228Z,3.92
2022-11-20T07:22:47.443Z,4.38
2022-11-20T07:25:14.099Z,4.53
2022-11-20T07:27:40.799Z,4.63
2022-11-20T07:30:07.944Z,4.13
2022-11-20T07:32:34.678Z,4.95
2022-11-20T07:37:27.944Z,5.45
2022-11-20T07:39:54.575Z,4.75
2022-11-20T07:42:21.260Z,4.72
2022-11-20T07:44:51.203Z,4.70
2022-11-20T07:47:17.863Z,4.80
2022-11-20T07:49:45.608Z,5.05
2022-11-20T07:52:12.264Z,4.60
2022-11-20T07:54:39.012Z,4.70
2022-11-20T07:59:32.313Z,4.72
2022-11-20T08:04:25.689Z,5.30
2022-11-20T08:09:22.463Z,4.80
2022-11-20T08:12:07.939Z,3.60
2022-11-20T08:14:34.645Z,3.78
2022-11-20T08:17:01.321Z,4.35
2022-11-20T08:21:55.797Z,3.60
2022-11-20T08:24:22.488Z,3.10
2022-11-20T08:26:49.150Z,3.25
2022-11-20T08:29:15.855Z,2.80
2022-11-20T08:31:42.583Z,3.33
2022-11-20T08:36:38.050Z,2.85
2022-11-20T08:39:04.988Z,2.75
2022-11-20T08:41:33.921Z,2.50
2022-11-20T08:44:03.124Z,2.30
2022-11-20T08:46:38.147Z,2.72
2022-11-20T08:49:06.946Z,2.53
2022-11-20T08:51:34.207Z,1.98
2022-11-20T08:54:01.200Z,2.13
2022-11-20T08:56:28.004Z,1.95
2022-11-20T09:01:41.455Z,1.77
2022-11-20T09:04:08.244Z,1.88
2022-11-20T09:06:35.022Z,2.35
2022-11-20T09:09:06.347Z,2.03
2022-11-20T09:11:33.781Z,1.83
2022-11-20T09:14:01.051Z,1.77
2022-11-20T09:16:27.709Z,1.70
2022-11-20T09:19:13.458Z,1.50
2022-11-20T09:21:41.044Z,1.55
2022-11-20T09:24:07.949Z,1.35
2022-11-20T09:26:34.616Z,1.77
2022-11-20T09:29:01.315Z,1.67
2022-11-20T09:33:54.629Z,1.60
2022-11-20T09:36:21.544Z,1.00
2022-11-20T09:38:48.774Z,1.30
2022-11-20T09:41:38.404Z,1.25
2022-11-20T09:44:39.860Z,1.00
2022-11-20T09:47:18.042Z,1.25
2022-11-20T09:50:02.871Z,1.13
2022-11-20T09:52:52.084Z,0.98
2022-11-20T09:55:19.099Z,0.85
2022-11-20T09:57:49.144Z,0.93
2022-11-20T10:00:16.871Z,1.17
2022-11-20T10:02:48.888Z,1.08
2022-11-20T10:05:41.773Z,1.10
2022-11-20T10:08:23.501Z,1.67
2022-11-20T10:10:53.941Z,4.40
2022-11-20T10:13:58.124Z,2.45
2022-11-20T10:16:24.952Z,1.63
2022-11-20T10:21:36.616Z,1.10
2022-11-20T10:24:22.176Z,2.38
2022-11-20T10:27:42.540Z,1.63
2022-11-20T10:30:14.451Z,1.52
2022-11-20T10:32:49.520Z,1.40
2022-11-20T10:35:33.114Z,1.17
2022-11-20T10:38:02.809Z,1.40
2022-11-20T10:40:47.519Z,1.02
2022-11-20T10:43:33.398Z,1.73
2022-11-20T10:46:05.872Z,1.00
2022-11-20T10:48:33.267Z,1.30
2022-11-20T10:51:19.511Z,1.27
2022-11-20T10:53:50.135Z,1.20
2022-11-20T10:56:26.038Z,0.80
2022-11-20T10:59:34.668Z,1.20
2022-11-20T11:02:03.352Z,1.25
2022-11-20T11:04:40.546Z,1.20
2022-11-20T11:07:28.438Z,1.08
2022-11-20T11:12:27.091Z,0.98
2022-11-20T11:14:56.033Z,1.05
2022-11-20T11:17:34.486Z,1.42
2022-11-20T11:20:19.920Z,0.93
2022-11-20T11:22:53.472Z,0.90
2022-11-20T11:25:23.496Z,1.08
2022-11-20T11:27:51.973Z,0.75
2022-11-20T11:30:20.858Z,0.90
2022-11-20T11:32:47.826Z,0.80
2022-11-20T11:35:26.732Z,1.10
2022-11-20T11:38:08.286Z,0.70
2022-11-20T11:40:37.095Z,1.02
2022-11-20T11:43:27.953Z,1.10
2022-11-20T11:45:56.708Z,1.13
2022-11-20T11:48:23.490Z,1.00
2022-11-20T11:53:25.012Z,1.30
2022-11-20T11:56:05.786Z,1.00
2022-11-20T11:58:52.685Z,1.02
2022-11-20T12:01:50.100Z,1.10
2022-11-20T12:04:51.885Z,1.10
2022-11-20T12:07:46.209Z,0.95
2022-11-20T12:10:35.881Z,1.23
2022-11-20T12:13:15.539Z,1.00
2022-11-20T12:15:47.179Z,1.10
2022-11-20T12:18:20.664Z,0.90
2022-11-20T12:21:18.310Z,0.95
2022-11-20T12:23:57.520Z,0.80
2022-11-20T12:26:44.841Z,0.85
2022-11-20T12:29:11.479Z,3.90
2022-11-20T12:31:52.340Z,1.38
2022-11-20T12:34:31.934Z,0.80
2022-11-20T12:37:27.882Z,1.00
2022-11-20T12:39:59.624Z,1.23
2022-11-20T12:43:07.606Z,1.13
2022-11-20T12:45:52.176Z,0.80
2022-11-20T12:48:43.530Z,1.40
2022-11-20T12:51:16.360Z,1.00
2022-11-20T12:54:28.384Z,1.02
2022-11-20T12:57:21.228Z,1.10
2022-11-20T12:59:47.885Z,1.30
2022-11-20T13:02:28.536Z,1.52
2022-11-20T13:05:13.776Z,0.90
2022-11-20T13:07:42.743Z,1.25
2022-11-20T13:10:33.224Z,1.50
2022-11-20T13:13:18.610Z,0.90
2022-11-20T13:16:14.262Z,0.80
2022-11-20T13:18:43.497Z,0.80
2022-11-20T13:21:36.144Z,1.17
2022-11-20T13:24:31.115Z,1.00
2022-11-20T13:27:14.026Z,0.80
2022-11-20T13:29:46.426Z,1.13
2022-11-20T13:32:21.452Z,0.80
2022-11-20T13:35:01.146Z,0.75
2022-11-20T13:37:37.316Z,1.00
2022-11-20T13:40:11.168Z,0.90
2022-11-20T13:42:44.076Z,1.20
2022-11-20T13:45:26.071Z,0.93
2022-11-20T13:47:53.726Z,0.80
2022-11-20T13:50:38.706Z,0.80
2022-11-20T13:53:42.474Z,1.20
2022-11-20T13:56:18.182Z,0.90
2022-11-20T13:59:05.037Z,1.00
2022-11-20T14:01:33.202Z,0.98
2022-11-20T14:04:07.472Z,0.73
2022-11-20T14:06:42.241Z,0.77
2022-11-20T14:09:14.667Z,1.00
2022-11-20T14:11:47.973Z,0.85
2022-11-20T14:14:19.976Z,1.15
2022-11-20T14:16:47.593Z,1.00
2022-11-20T14:19:20.456Z,0.80
2022-11-20T14:21:55.396Z,0.95
2022-11-20T14:24:24.314Z,0.80
2022-11-20T14:26:52.346Z,0.95
2022-11-20T14:29:21.708Z,9.27
2022-11-20T14:31:54.173Z,3.30
2022-11-20T14:34:30.152Z,0.90
2022-11-20T14:37:02.601Z,1.05
2022-11-20T14:39:35.072Z,1.13
2022-11-20T14:42:01.891Z,1.08
2022-11-20T14:46:59.105Z,1.20
2022-11-20T14:49:26.744Z,1.27
2022-11-20T14:52:11.416Z,1.20
2022-11-20T14:54:46.456Z,1.00
2022-11-20T14:57:33.926Z,0.82
2022-11-20T15:00:12.576Z,1.58
2022-11-20T15:02:44.131Z,0.90
2022-11-20T15:05:10.976Z,0.85
2022-11-20T15:10:22.407Z,0.98
2022-11-20T15:12:51.062Z,3.40
2022-11-20T15:15:22.368Z,1.38
2022-11-20T15:17:49.121Z,0.95
2022-11-20T15:20:17.512Z,1.40
2022-11-20T15:22:44.468Z,1.10
2022-11-20T15:25:18.644Z,1.48
2022-11-20T15:27:46.746Z,1.38
2022-11-20T15:30:17.719Z,1.33
2022-11-20T15:32:45.796Z,1.60
2022-11-20T15:35:13.160Z,1.90
2022-11-20T15:37:40.364Z,1.63
2022-11-20T15:40:08.424Z,1.40
2022-11-20T15:42:35.975Z,1.30
2022-11-20T15:45:02.854Z,1.48
2022-11-20T15:47:33.736Z,1.58
2022-11-20T15:50:00.517Z,1.65
2022-11-20T15:55:09.714Z,2.35
2022-11-20T15:57:37.823Z,1.90
2022-11-20T16:00:04.987Z,1.88
2022-11-20T16:02:37.471Z,2.38
2022-11-20T16:05:04.488Z,1.85
2022-11-20T16:07:31.226Z,2.10
2022-11-20T16:12:43.429Z,1.83
2022-11-20T16:15:29.012Z,1.83
2022-11-20T16:17:55.796Z,1.85
2022-11-20T16:22:49.140Z,2.20
2022-11-20T16:25:15.901Z,1.80
2022-11-20T16:30:10.081Z,4.55
2022-11-20T16:32:36.808Z,1.83
2022-11-20T16:37:30.892Z,2.13
2022-11-20T16:42:24.355Z,1.95
2022-11-20T16:47:17.528Z,1.60
2022-11-20T16:49:44.302Z,2.45
2022-11-20T16:54:37.611Z,1.80
2022-11-20T16:57:04.302Z,1.98
2022-11-20T17:01:57.579Z,4.20
2022-11-20T17:06:51.641Z,3.55
2022-11-20T17:09:18.564Z,2.00
2022-11-20T17:11:45.216Z,1.77
2022-11-20T17:14:12.375Z,1.63
2022-11-20T17:16:39.375Z,1.48
2022-11-20T17:19:06.432Z,1.90
2022-11-20T17:21:36.007Z,2.00
2022-11-20T17:24:05.707Z,1.67
2022-11-20T17:26:33.378Z,1.85
2022-11-20T17:29:02.797Z,1.65
2022-11-20T17:31:32.088Z,1.88
2022-11-20T17:34:02.480Z,1.48
2022-11-20T17:36:30.099Z,1.40
2022-11-20T17:38:57.535Z,1.52
2022-11-20T17:41:26.932Z,1.73
2022-11-20T17:43:58.388Z,1.70
2022-11-20T17:46:28.523Z,2.10
2022-11-20T17:48:55.987Z,1.60
2022-11-20T17:51:26.052Z,1.52
2022-11-20T17:53:55.964Z,2.50
2022-11-20T17:56:41.572Z,1.80
2022-11-20T17:59:10.889Z,2.13
2022-11-20T18:01:38.295Z,2.05
2022-11-20T18:04:05.801Z,1.75
2022-11-20T18:06:32.917Z,2.13
2022-11-20T18:09:00.896Z,1.75
2022-11-20T18:11:30.391Z,1.95
2022-11-20T18:14:17.833Z,1.83
2022-11-20T18:16:51.671Z,1.60
2022-11-20T18:19:25.466Z,1.90
2022-11-20T18:21:54.472Z,1.60
2022-11-20T18:26:48.755Z,1.70
2022-11-20T18:31:44.158Z,2.03
2022-11-20T18:34:13.947Z,1.70
2022-11-20T18:36:42.164Z,2.40
2022-11-20T18:39:11.394Z,2.08
2022-11-20T18:41:57.221Z,2.10
2022-11-20T18:44:44.611Z,3.13
2022-11-20T18:47:14.965Z,2.20
2022-11-20T18:49:43.286Z,10.27
2022-11-20T18:52:09.951Z,14.93
2022-11-20T18:54:36.954Z,9.02
2022-11-20T18:57:04.780Z,6.20
2022-11-20T18:59:32.005Z,4.10
2022-11-20T19:01:58.885Z,4.30
2022-11-20T19:06:56.142Z,2.38
2022-11-20T19:09:24.155Z,2.10
2022-11-20T19:11:51.345Z,2.08
2022-11-20T19:14:18.397Z,1.75
2022-11-20T19:16:45.189Z,1.70
2022-11-20T19:21:38.649Z,2.10
2022-11-20T19:24:05.755Z,4.45
2022-11-20T19:26:35.604Z,4.85
2022-11-20T19:29:04.247Z,4.57
2022-11-20T19:31:31.294Z,4.05
2022-11-20T19:34:00.756Z,13.05
2022-11-20T19:36:44.316Z,2.20
2022-11-20T19:39:11.935Z,2.20
2022-11-20T19:41:40.165Z,1.77
2022-11-20T19:44:17.314Z,1.70
2022-11-20T19:46:44.160Z,1.55
2022-11-20T19:51:43.453Z,1.77
2022-11-20T19:54:10.133Z,1.90
2022-11-20T19:56:36.761Z,1.80
2022-11-20T19:59:03.620Z,1.63
2022-11-20T20:04:02.333Z,1.65
2022-11-20T20:06:29.940Z,1.92
2022-11-20T20:09:12.081Z,1.50
2022-11-20T20:11:40.041Z,4.50
2022-11-20T20:14:10.251Z,1.70
2022-11-20T20:16:37.423Z,1.50
2022-11-20T20:19:05.626Z,1.20
2022-11-20T20:21:34.947Z,2.45
2022-11-20T20:24:01.831Z,1.60
2022-11-20T20:26:31.060Z,1.50
2022-11-20T20:28:58.054Z,2.20
2022-11-20T20:31:26.804Z,1.80
2022-11-20T20:33:54.104Z,1.48
2022-11-20T20:36:22.238Z,1.75
2022-11-20T20:38:52.999Z,2.10
2022-11-20T20:41:20.635Z,1.95
2022-11-20T20:44:06.627Z,1.88
2022-11-20T20:46:33.340Z,1.75
2022-11-20T20:49:00.061Z,1.67
2022-11-20T20:51:26.860Z,1.83
2022-11-20T20:53:54.515Z,1.63
2022-11-20T20:56:21.265Z,1.70
2022-11-20T21:01:16.947Z,1.40
2022-11-20T21:03:44.256Z,1.70
2022-11-20T21:06:12.181Z,1.60
2022-11-20T21:08:40.934Z,1.40
2022-11-20T21:11:14.550Z,1.40
2022-11-20T21:13:43.386Z,1.40
2022-11-20T21:16:11.228Z,2.15
2022-11-20T21:18:38.157Z,1.42
2022-11-20T21:21:30.526Z,1.40
2022-11-20T21:23:57.552Z,1.73
2022-11-20T21:26:24.434Z,1.35
2022-11-20T21:28:51.116Z,1.33
2022-11-20T21:31:22.001Z,1.38
2022-11-20T21:33:50.060Z,1.17
2022-11-20T21:36:19.052Z,1.20
2022-11-20T21:38:46.608Z,1.10
2022-11-20T21:41:14.783Z,1.08
2022-11-20T21:43:42.762Z,1.17
2022-11-20T21:46:12.159Z,1.33
2022-11-20T21:48:40.116Z,1.05
2022-11-20T21:51:20.542Z,0.98
2022-11-20T21:53:48.485Z,1.08
2022-11-20T21:56:20.312Z,1.20
2022-11-20T21:58:48.517Z,1.00
2022-11-20T22:01:19.593Z,1.00
2022-11-20T22:03:56.676Z,0.70
2022-11-20T22:06:24.915Z,0.75
2022-11-20T22:08:51.683Z,0.90
2022-11-20T22:14:06.202Z,0.68
2022-11-20T22:16:37.152Z,0.68
2022-11-20T22:19:05.106Z,0.85
2022-11-20T22:21:32.392Z,1.10
2022-11-20T22:23:59.831Z,0.90
2022-11-20T22:26:28.870Z,0.70
2022-11-20T22:28:57.719Z,0.80
2022-11-20T22:31:26.432Z,1.00
2022-11-20T22:33:54.079Z,0.63
2022-11-20T22:36:23.156Z,0.50
2022-11-20T22:38:49.963Z,0.93
2022-11-20T22:43:44.396Z,0.93
2022-11-20T22:46:13.595Z,0.90
2022-11-20T22:48:42.644Z,0.80
2022-11-20T22:51:12.907Z,0.75
2022-11-20T22:53:40.833Z,1.42
2022-11-20T22:56:09.795Z,0.50
2022-11-20T22:58:37.628Z,0.55
2022-11-20T23:01:11.436Z,0.57
2022-11-20T23:03:39.295Z,0.70
2022-11-20T23:06:06.889Z,0.90
2022-11-20T23:08:34.093Z,0.70
2022-11-20T23:11:01.803Z,0.80
2022-11-20T23:13:29.192Z,0.60
2022-11-20T23:16:02.435Z,1.00
2022-11-20T23:18:29.768Z,0.60
2022-11-20T23:20:56.856Z,0.68
2022-11-20T23:23:23.587Z,0.52
2022-11-20T23:28:16.839Z,0.60
2022-11-20T23:30:47.366Z,0.55
2022-11-20T23:33:14.068Z,0.75
2022-11-20T23:35:40.774Z,0.30
2022-11-20T23:40:40.128Z,0.55
2022-11-20T23:43:17.164Z,0.60
2022-11-20T23:45:45.382Z,0.50
2022-11-20T23:48:12.795Z,0.50
2022-11-20T23:50:39.864Z,0.63
2022-11-20T23:53:06.914Z,0.47
2022-11-20T23:55:34.102Z,0.70
2022-11-20T23:58:00.944Z,0.88
